createdAt,value
2024-01-11T00:00:21.379Z,-6.41
2024-01-11T00:03:14.916Z,-6.44
2024-01-11T00:05:49.012Z,-6.45
2024-01-11T00:08:22.673Z,-6.46
2024-01-11T00:10:57.406Z,-6.48
2024-01-11T00:13:31.315Z,-6.50
2024-01-11T00:16:04.852Z,-6.51
2024-01-11T00:18:38.341Z,-6.52
2024-01-11T00:21:12.059Z,-6.54
2024-01-11T00:23:45.853Z,-6.56
2024-01-11T00:26:19.552Z,-6.58
2024-01-11T00:28:52.964Z,-6.59
2024-01-11T00:31:26.356Z,-6.61
2024-01-11T00:34:00.135Z,-6.60
2024-01-11T00:36:34.319Z,-6.63
2024-01-11T00:39:08.265Z,-6.64
2024-01-11T00:41:42.234Z,-6.66
2024-01-11T00:44:16.234Z,-6.67
2024-01-11T00:46:49.952Z,-6.68
2024-01-11T00:49:23.565Z,-6.69
2024-01-11T00:51:57.144Z,-6.72
2024-01-11T00:54:31.317Z,-6.73
2024-01-11T00:57:05.088Z,-6.75
2024-01-11T00:59:38.621Z,-6.76
2024-01-11T01:02:12.582Z,-6.79
2024-01-11T01:04:45.939Z,-6.76
2024-01-11T01:07:19.632Z,-6.78
2024-01-11T01:09:53.102Z,-6.80
2024-01-11T01:12:27.380Z,-6.78
2024-01-11T01:15:00.967Z,-6.78
2024-01-11T01:17:34.931Z,-6.78
2024-01-11T01:20:11.743Z,-6.78
2024-01-11T01:22:45.309Z,-6.78
2024-01-11T01:25:18.869Z,-6.78
2024-01-11T01:27:52.311Z,-6.81
2024-01-11T01:30:26.516Z,-6.81
2024-01-11T01:33:00.759Z,-6.81
2024-01-11T01:35:36.069Z,-6.85
2024-01-11T01:38:09.600Z,-6.87
2024-01-11T01:40:43.375Z,-6.88
2024-01-11T01:43:17.170Z,-6.90
2024-01-11T01:45:51.591Z,-6.92
2024-01-11T01:48:25.343Z,-6.94
2024-01-11T01:50:59.474Z,-6.93
2024-01-11T01:53:33.939Z,-6.93
2024-01-11T01:56:08.780Z,-6.96
2024-01-11T01:58:43.390Z,-6.95
2024-01-11T02:01:17.872Z,-6.95
2024-01-11T02:03:52.589Z,-6.96
2024-01-11T02:06:28.199Z,-6.98
2024-01-11T02:09:04.279Z,-7.00
2024-01-11T02:11:40.445Z,-7.01
2024-01-11T02:14:15.050Z,-7.02
2024-01-11T02:16:48.446Z,-7.03
2024-01-11T02:19:23.729Z,-7.07
2024-01-11T02:22:03.014Z,-7.06
2024-01-11T02:24:36.890Z,-7.08
2024-01-11T02:27:12.169Z,-7.09
2024-01-11T02:29:45.740Z,-7.10
2024-01-11T02:32:19.803Z,-7.13
2024-01-11T02:34:53.860Z,-7.11
2024-01-11T02:37:27.274Z,-7.13
2024-01-11T02:40:01.325Z,-7.16
2024-01-11T02:42:35.013Z,-7.17
2024-01-11T02:45:10.860Z,-7.21
2024-01-11T02:47:44.764Z,-7.22
2024-01-11T02:50:18.610Z,-7.22
2024-01-11T02:52:51.939Z,-7.22
2024-01-11T02:55:25.545Z,-7.22
2024-01-11T02:57:59.143Z,-7.23
2024-01-11T03:00:32.767Z,-7.24
2024-01-11T03:03:07.919Z,-7.24
2024-01-11T03:05:41.581Z,-7.24
2024-01-11T03:08:15.729Z,-7.24
2024-01-11T03:10:49.390Z,-7.25
2024-01-11T03:13:22.934Z,-7.25
2024-01-11T03:15:56.873Z,-7.23
2024-01-11T03:18:32.568Z,-7.23
2024-01-11T03:21:06.735Z,-7.24
2024-01-11T03:23:40.451Z,-7.24
2024-01-11T03:26:18.756Z,-7.26
2024-01-11T03:28:52.370Z,-7.24
2024-01-11T03:31:26.300Z,-7.27
2024-01-11T03:33:59.620Z,-7.28
2024-01-11T03:36:33.287Z,-7.30
2024-01-11T03:39:07.774Z,-7.31
2024-01-11T03:41:45.318Z,-7.33
2024-01-11T03:44:19.211Z,-7.35
2024-01-11T03:46:53.203Z,-7.36
2024-01-11T03:49:26.851Z,-7.37
2024-01-11T03:52:00.489Z,-7.38
2024-01-11T03:54:34.382Z,-7.41
2024-01-11T03:57:09.126Z,-7.42
2024-01-11T03:59:42.790Z,-7.42
2024-01-11T04:02:17.215Z,-7.43
2024-01-11T04:04:50.915Z,-7.43
2024-01-11T04:07:25.531Z,-7.44
2024-01-11T04:09:58.965Z,-7.45
2024-01-11T04:12:32.681Z,-7.44
2024-01-11T04:15:07.102Z,-7.46
2024-01-11T04:17:41.181Z,-7.48
2024-01-11T04:20:16.707Z,-7.49
2024-01-11T04:22:50.829Z,-7.49
2024-01-11T04:25:25.161Z,-7.51
2024-01-11T04:27:58.894Z,-7.54
2024-01-11T04:30:32.385Z,-7.54
2024-01-11T04:33:06.582Z,-7.55
2024-01-11T04:35:40.351Z,-7.55
2024-01-11T04:38:13.855Z,-7.55
2024-01-11T04:40:47.729Z,-7.53
2024-01-11T04:43:21.053Z,-7.53
2024-01-11T04:45:55.034Z,-7.51
2024-01-11T04:48:28.887Z,-7.52
2024-01-11T04:51:02.714Z,-7.52
2024-01-11T04:53:38.505Z,-7.52
2024-01-11T04:56:13.190Z,-7.52
2024-01-11T04:58:48.789Z,-7.51
2024-01-11T05:01:23.203Z,-7.51
2024-01-11T05:03:56.929Z,-7.55
2024-01-11T05:06:31.490Z,-7.55
2024-01-11T05:09:06.270Z,-7.55
2024-01-11T05:11:40.254Z,-7.55
2024-01-11T05:14:14.040Z,-7.54
2024-01-11T05:16:47.713Z,-7.55
2024-01-11T05:19:21.090Z,-7.55
2024-01-11T05:21:54.662Z,-7.55
2024-01-11T05:24:28.757Z,-7.54
2024-01-11T05:27:02.218Z,-7.56
2024-01-11T05:29:35.965Z,-7.58
2024-01-11T05:32:10.790Z,-7.58
2024-01-11T05:34:44.386Z,-7.59
2024-01-11T05:37:18.236Z,-7.60
2024-01-11T05:39:51.951Z,-7.59
2024-01-11T05:42:25.756Z,-7.62
2024-01-11T05:44:59.108Z,-7.62
2024-01-11T05:47:32.487Z,-7.63
2024-01-11T05:50:06.828Z,-7.66
2024-01-11T05:52:40.324Z,-7.68
2024-01-11T05:55:14.479Z,-7.71
2024-01-11T05:57:48.143Z,-7.72
2024-01-11T06:00:23.801Z,-7.76
2024-01-11T06:02:57.493Z,-7.75
2024-01-11T06:05:31.618Z,-7.79
2024-01-11T06:08:05.406Z,-7.79
2024-01-11T06:10:39.142Z,-7.80
2024-01-11T06:13:12.951Z,-7.81
2024-01-11T06:15:46.720Z,-7.84
2024-01-11T06:18:20.944Z,-7.83
2024-01-11T06:20:54.803Z,-7.82
2024-01-11T06:23:29.719Z,-7.84
2024-01-11T06:26:03.406Z,-7.82
2024-01-11T06:28:37.077Z,-7.81
2024-01-11T06:31:11.961Z,-7.81
2024-01-11T06:33:47.166Z,-7.76
2024-01-11T06:36:22.186Z,-7.74
2024-01-11T06:38:55.758Z,-7.73
2024-01-11T06:41:31.287Z,-7.69
2024-01-11T06:44:04.905Z,-7.68
2024-01-11T06:46:40.761Z,-7.66
2024-01-11T06:49:14.515Z,-7.63
2024-01-11T06:51:48.301Z,-7.58
2024-01-11T06:54:21.957Z,-7.57
2024-01-11T06:56:55.554Z,-7.52
2024-01-11T06:59:29.256Z,-7.47
2024-01-11T07:02:03.767Z,-7.41
2024-01-11T07:04:37.530Z,-7.37
2024-01-11T07:07:10.639Z,-7.32
2024-01-11T07:09:44.238Z,-7.27
2024-01-11T07:12:18.368Z,-7.19
2024-01-11T07:14:51.992Z,-7.14
2024-01-11T07:17:25.557Z,-7.07
2024-01-11T07:19:59.445Z,-7.00
2024-01-11T07:22:33.130Z,-6.93
2024-01-11T07:25:08.666Z,-6.86
2024-01-11T07:27:42.252Z,-6.76
2024-01-11T07:30:19.690Z,-6.69
2024-01-11T07:32:53.568Z,-6.56
2024-01-11T07:35:27.332Z,-6.47
2024-01-11T07:38:00.880Z,-6.37
2024-01-11T07:40:36.464Z,-6.25
2024-01-11T07:43:10.738Z,-6.14
2024-01-11T07:45:45.908Z,-6.05
2024-01-11T07:48:19.576Z,-5.90
2024-01-11T07:50:53.493Z,-5.76
2024-01-11T07:53:27.421Z,-5.65
2024-01-11T07:56:02.490Z,-5.52
2024-01-11T07:58:38.775Z,-5.40
2024-01-11T08:01:13.900Z,-5.26
2024-01-11T08:03:48.696Z,-5.14
2024-01-11T08:06:22.845Z,-5.02
2024-01-11T08:08:56.575Z,-4.89
2024-01-11T08:11:31.422Z,-4.77
2024-01-11T08:14:07.465Z,-4.62
2024-01-11T08:16:41.323Z,-4.47
2024-01-11T08:19:15.661Z,-4.33
2024-01-11T08:21:49.537Z,-4.17
2024-01-11T08:24:23.224Z,-4.05
2024-01-11T08:26:56.619Z,-3.91
2024-01-11T08:29:30.762Z,-3.77
2024-01-11T08:32:15.343Z,-3.63
2024-01-11T08:34:59.447Z,-3.50
2024-01-11T08:37:33.566Z,-3.32
2024-01-11T08:40:10.970Z,-3.20
2024-01-11T08:42:44.458Z,-3.04
2024-01-11T08:45:20.070Z,-2.91
2024-01-11T08:47:54.465Z,-2.75
2024-01-11T08:50:29.533Z,-2.59
2024-01-11T08:53:03.541Z,-2.46
2024-01-11T08:55:37.002Z,-2.32
2024-01-11T08:58:10.769Z,-2.18
2024-01-11T09:00:45.439Z,-2.05
2024-01-11T09:03:18.986Z,-1.92
2024-01-11T09:05:53.603Z,-1.77
2024-01-11T09:08:27.452Z,-1.64
2024-01-11T09:11:01.141Z,-1.50
2024-01-11T09:13:34.884Z,-1.38
2024-01-11T09:16:10.685Z,-1.28
2024-01-11T09:18:45.748Z,-1.14
2024-01-11T09:21:19.473Z,-1.02
2024-01-11T09:23:52.570Z,-0.92
2024-01-11T09:26:26.422Z,-0.81
2024-01-11T09:29:00.293Z,-0.71
2024-01-11T09:31:33.862Z,-0.61
2024-01-11T09:34:07.034Z,-0.50
2024-01-11T09:36:41.372Z,-0.42
2024-01-11T09:39:15.729Z,-0.32
2024-01-11T09:42:07.092Z,-0.21
2024-01-11T09:44:41.375Z,-0.12
2024-01-11T09:47:18.986Z,-0.03
2024-01-11T09:49:54.789Z,0.03
2024-01-11T09:52:34.352Z,0.13
2024-01-11T09:55:10.780Z,0.22
2024-01-11T09:57:47.270Z,0.28
2024-01-11T10:00:24.951Z,0.36
2024-01-11T10:02:59.096Z,0.44
2024-01-11T10:05:35.715Z,0.53
2024-01-11T10:08:11.148Z,0.61
2024-01-11T10:10:44.869Z,0.69
2024-01-11T10:13:18.738Z,0.78
2024-01-11T10:15:52.730Z,0.82
2024-01-11T10:18:27.017Z,0.93
2024-01-11T10:21:01.551Z,0.98
2024-01-11T10:23:38.259Z,1.07
2024-01-11T10:26:12.263Z,1.14
2024-01-11T10:28:48.231Z,1.18
2024-01-11T10:31:29.016Z,1.24
2024-01-11T10:34:02.889Z,1.29
2024-01-11T10:36:37.515Z,1.35
2024-01-11T10:39:12.802Z,1.43
2024-01-11T10:41:50.385Z,1.51
2024-01-11T10:44:24.915Z,1.56
2024-01-11T10:47:00.904Z,1.61
2024-01-11T10:49:35.765Z,1.67
2024-01-11T10:52:10.885Z,1.71
2024-01-11T10:54:44.979Z,1.77
2024-01-11T10:57:18.856Z,1.80
2024-01-11T10:59:54.075Z,1.85
2024-01-11T11:02:28.936Z,1.88
2024-01-11T11:05:05.757Z,1.94
2024-01-11T11:07:41.161Z,2.00
2024-01-11T11:10:17.022Z,2.04
2024-01-11T11:12:51.504Z,2.09
2024-01-11T11:15:26.291Z,2.12
2024-01-11T11:18:02.306Z,2.16
2024-01-11T11:20:36.569Z,2.17
2024-01-11T11:23:12.134Z,2.22
2024-01-11T11:25:47.524Z,2.27
2024-01-11T11:28:21.685Z,2.31
2024-01-11T11:30:59.031Z,2.37
2024-01-11T11:33:33.921Z,2.44
2024-01-11T11:36:14.536Z,2.48
2024-01-11T11:38:48.529Z,2.49
2024-01-11T11:41:23.592Z,2.52
2024-01-11T11:43:58.011Z,2.55
2024-01-11T11:46:32.801Z,2.59
2024-01-11T11:49:06.344Z,2.62
2024-01-11T11:51:41.672Z,2.66
2024-01-11T11:54:16.343Z,2.68
2024-01-11T11:56:51.016Z,2.69
2024-01-11T11:59:26.163Z,2.72
2024-01-11T12:02:00.082Z,2.75
2024-01-11T12:04:34.410Z,2.76
2024-01-11T12:07:08.017Z,2.79
2024-01-11T12:09:42.645Z,2.80
2024-01-11T12:12:16.878Z,2.81
2024-01-11T12:14:51.296Z,2.79
2024-01-11T12:17:25.121Z,2.84
2024-01-11T12:19:58.938Z,2.89
2024-01-11T12:22:32.739Z,2.91
2024-01-11T12:25:07.287Z,2.91
2024-01-11T12:27:41.416Z,2.95
2024-01-11T12:30:19.411Z,2.97
2024-01-11T12:32:53.680Z,2.98
2024-01-11T12:35:29.149Z,2.98
2024-01-11T12:38:05.644Z,2.98
2024-01-11T12:40:39.857Z,2.99
2024-01-11T12:43:14.141Z,2.98
2024-01-11T12:45:47.987Z,2.96
2024-01-11T12:48:21.707Z,2.99
2024-01-11T12:51:09.856Z,2.99
2024-01-11T12:53:47.723Z,3.02
2024-01-11T12:56:24.283Z,3.00
2024-01-11T12:59:12.353Z,3.00
2024-01-11T13:01:45.972Z,2.99
2024-01-11T13:04:19.271Z,3.01
2024-01-11T13:06:54.791Z,3.00
2024-01-11T13:09:28.544Z,2.99
2024-01-11T13:12:03.057Z,2.99
2024-01-11T13:14:36.915Z,2.98
2024-01-11T13:17:11.021Z,2.96
2024-01-11T13:19:44.175Z,2.95
2024-01-11T13:22:18.052Z,2.95
2024-01-11T13:24:51.797Z,2.95
2024-01-11T13:27:25.459Z,2.94
2024-01-11T13:29:59.775Z,2.93
2024-01-11T13:32:33.896Z,2.91
2024-01-11T13:35:08.995Z,2.89
2024-01-11T13:37:42.679Z,2.85
2024-01-11T13:40:16.969Z,2.82
2024-01-11T13:42:50.566Z,2.79
2024-01-11T13:45:24.169Z,2.76
2024-01-11T13:47:57.664Z,2.74
2024-01-11T13:50:31.348Z,2.70
2024-01-11T13:53:05.667Z,2.69
2024-01-11T13:55:41.221Z,2.65
2024-01-11T13:58:15.304Z,2.60
2024-01-11T14:00:49.326Z,2.54
2024-01-11T14:03:23.142Z,2.50
2024-01-11T14:05:57.160Z,2.45
2024-01-11T14:08:31.303Z,2.40
2024-01-11T14:11:05.288Z,2.34
2024-01-11T14:13:38.745Z,2.28
2024-01-11T14:16:12.993Z,2.23
2024-01-11T14:18:46.786Z,2.16
2024-01-11T14:21:20.642Z,2.11
2024-01-11T14:23:54.090Z,2.07
2024-01-11T14:26:27.652Z,2.01
2024-01-11T14:29:02.226Z,1.94
2024-01-11T14:31:35.646Z,1.88
2024-01-11T14:34:09.617Z,1.80
2024-01-11T14:36:43.529Z,1.71
2024-01-11T14:39:16.989Z,1.65
2024-01-11T14:41:50.805Z,1.57
2024-01-11T14:44:24.339Z,1.51
2024-01-11T14:46:58.645Z,1.46
2024-01-11T14:49:32.455Z,1.41
2024-01-11T14:52:06.458Z,1.33
2024-01-11T14:54:40.026Z,1.26
2024-01-11T14:57:14.478Z,1.19
2024-01-11T14:59:48.328Z,1.10
2024-01-11T15:02:22.662Z,1.01
2024-01-11T15:04:56.579Z,0.94
2024-01-11T15:07:30.255Z,0.84
2024-01-11T15:10:03.991Z,0.75
2024-01-11T15:12:38.132Z,0.65
2024-01-11T15:15:14.014Z,0.55
2024-01-11T15:17:48.095Z,0.48
2024-01-11T15:20:23.474Z,0.39
2024-01-11T15:22:57.382Z,0.30
2024-01-11T15:25:31.186Z,0.23
2024-01-11T15:28:05.141Z,0.12
2024-01-11T15:30:39.041Z,0.06
2024-01-11T15:33:13.116Z,-0.01
2024-01-11T15:35:47.474Z,-0.08
2024-01-11T15:38:21.143Z,-0.15
2024-01-11T15:40:54.629Z,-0.24
2024-01-11T15:43:28.137Z,-0.31
2024-01-11T15:46:01.947Z,-0.38
2024-01-11T15:48:35.680Z,-0.47
2024-01-11T15:51:10.538Z,-0.52
2024-01-11T15:53:45.229Z,-0.57
2024-01-11T15:56:18.977Z,-0.64
2024-01-11T15:58:52.541Z,-0.72
2024-01-11T16:01:26.245Z,-0.75
2024-01-11T16:03:59.965Z,-0.79
2024-01-11T16:06:33.655Z,-0.84
2024-01-11T16:09:07.553Z,-0.89
2024-01-11T16:11:41.313Z,-0.94
2024-01-11T16:14:16.105Z,-0.98
2024-01-11T16:16:49.722Z,-1.02
2024-01-11T16:19:23.367Z,-1.09
2024-01-11T16:21:56.774Z,-1.12
2024-01-11T16:24:30.522Z,-1.15
2024-01-11T16:27:06.112Z,-1.21
2024-01-11T16:29:41.149Z,-1.26
2024-01-11T16:32:16.732Z,-1.32
2024-01-11T16:34:50.657Z,-1.36
2024-01-11T16:37:24.162Z,-1.42
2024-01-11T16:39:58.052Z,-1.47
2024-01-11T16:42:33.838Z,-1.51
2024-01-11T16:45:09.250Z,-1.56
2024-01-11T16:47:43.163Z,-1.61
2024-01-11T16:50:17.664Z,-1.67
2024-01-11T16:52:51.218Z,-1.72
2024-01-11T16:55:25.022Z,-1.75
2024-01-11T16:57:59.580Z,-1.80
2024-01-11T17:00:33.484Z,-1.85
2024-01-11T17:03:08.713Z,-1.90
2024-01-11T17:05:44.212Z,-1.95
2024-01-11T17:08:18.036Z,-2.00
2024-01-11T17:10:51.585Z,-2.03
2024-01-11T17:13:25.485Z,-2.08
2024-01-11T17:18:34.231Z,-2.15
2024-01-11T17:21:08.852Z,-2.19
2024-01-11T17:23:42.443Z,-2.24
2024-01-11T17:26:18.294Z,-2.30
2024-01-11T17:28:53.044Z,-2.33
2024-01-11T17:31:27.254Z,-2.36
2024-01-11T17:34:01.534Z,-2.39
2024-01-11T17:36:35.202Z,-2.42
2024-01-11T17:39:11.892Z,-2.45
2024-01-11T17:41:45.842Z,-2.48
2024-01-11T17:44:20.202Z,-2.54
2024-01-11T17:46:54.353Z,-2.55
2024-01-11T17:49:28.144Z,-2.58
2024-01-11T17:52:01.862Z,-2.61
2024-01-11T17:54:35.557Z,-2.64
2024-01-11T17:57:09.876Z,-2.67
2024-01-11T17:59:46.480Z,-2.70
2024-01-11T18:02:20.540Z,-2.71
2024-01-11T18:04:53.703Z,-2.74
2024-01-11T18:07:27.384Z,-2.76
2024-01-11T18:10:00.784Z,-2.80
2024-01-11T18:12:34.177Z,-2.83
2024-01-11T18:15:10.336Z,-2.83
2024-01-11T18:17:44.356Z,-2.87
2024-01-11T18:20:18.360Z,-2.90
2024-01-11T18:22:52.359Z,-2.96
2024-01-11T18:25:26.128Z,-2.98
2024-01-11T18:27:59.866Z,-2.99
2024-01-11T18:30:33.661Z,-3.01
2024-01-11T18:33:08.880Z,-3.06
2024-01-11T18:35:43.216Z,-3.09
2024-01-11T18:38:16.889Z,-3.11
2024-01-11T18:40:52.902Z,-3.12
2024-01-11T18:43:26.561Z,-3.17
2024-01-11T18:46:00.539Z,-3.18
2024-01-11T18:48:34.150Z,-3.20
2024-01-11T18:51:08.328Z,-3.20
2024-01-11T18:53:41.783Z,-3.24
2024-01-11T18:56:18.658Z,-3.24
2024-01-11T18:58:52.059Z,-3.27
2024-01-11T19:01:26.934Z,-3.28
2024-01-11T19:04:00.941Z,-3.30
2024-01-11T19:06:34.861Z,-3.33
2024-01-11T19:09:09.841Z,-3.37
2024-01-11T19:11:44.665Z,-3.38
2024-01-11T19:14:18.341Z,-3.42
2024-01-11T19:16:53.258Z,-3.43
2024-01-11T19:19:27.138Z,-3.47
2024-01-11T19:22:00.505Z,-3.50
2024-01-11T19:24:35.732Z,-3.56
2024-01-11T19:27:10.001Z,-3.56
2024-01-11T19:29:43.752Z,-3.58
2024-01-11T19:32:17.640Z,-3.59
2024-01-11T19:34:50.747Z,-3.60
2024-01-11T19:37:24.400Z,-3.64
2024-01-11T19:39:57.833Z,-3.67
2024-01-11T19:42:31.406Z,-3.69
2024-01-11T19:45:05.221Z,-3.72
2024-01-11T19:47:38.899Z,-3.74
2024-01-11T19:50:14.718Z,-3.75
2024-01-11T19:52:48.233Z,-3.77
2024-01-11T19:55:25.449Z,-3.79
2024-01-11T19:57:59.165Z,-3.77
2024-01-11T20:00:33.343Z,-3.78
2024-01-11T20:03:08.453Z,-3.77
2024-01-11T20:05:42.597Z,-3.76
2024-01-11T20:08:16.203Z,-3.77
2024-01-11T20:10:50.465Z,-3.77
2024-01-11T20:13:24.389Z,-3.77
2024-01-11T20:15:58.053Z,-3.80
2024-01-11T20:18:33.973Z,-3.79
2024-01-11T20:21:12.538Z,-3.81
2024-01-11T20:23:46.172Z,-3.84
2024-01-11T20:26:24.787Z,-3.84
2024-01-11T20:28:59.837Z,-3.87
2024-01-11T20:31:33.498Z,-3.88
2024-01-11T20:34:08.479Z,-3.90
2024-01-11T20:36:42.112Z,-3.92
2024-01-11T20:39:15.663Z,-3.94
2024-01-11T20:41:50.532Z,-3.96
2024-01-11T20:44:24.341Z,-3.99
2024-01-11T20:46:58.800Z,-4.02
2024-01-11T20:49:34.013Z,-4.06
2024-01-11T20:52:08.534Z,-4.09
2024-01-11T20:54:42.090Z,-4.12
2024-01-11T20:57:15.856Z,-4.15
2024-01-11T20:59:49.692Z,-4.16
2024-01-11T21:02:23.316Z,-4.18
2024-01-11T21:04:56.510Z,-4.20
2024-01-11T21:07:30.308Z,-4.24
2024-01-11T21:10:04.230Z,-4.24
2024-01-11T21:12:37.982Z,-4.27
2024-01-11T21:15:13.573Z,-4.30
2024-01-11T21:17:47.211Z,-4.28
2024-01-11T21:20:21.893Z,-4.28
2024-01-11T21:22:55.542Z,-4.28
2024-01-11T21:25:28.704Z,-4.30
2024-01-11T21:28:04.089Z,-4.30
2024-01-11T21:30:37.946Z,-4.33
2024-01-11T21:33:11.974Z,-4.37
2024-01-11T21:35:45.731Z,-4.35
2024-01-11T21:38:19.403Z,-4.38
2024-01-11T21:40:53.833Z,-4.39
2024-01-11T21:43:27.930Z,-4.40
2024-01-11T21:46:01.592Z,-4.42
2024-01-11T21:48:35.139Z,-4.46
2024-01-11T21:51:08.856Z,-4.45
2024-01-11T21:53:43.141Z,-4.44
2024-01-11T21:56:17.374Z,-4.44
2024-01-11T21:58:51.157Z,-4.45
2024-01-11T22:01:24.912Z,-4.45
2024-01-11T22:03:59.329Z,-4.44
2024-01-11T22:06:35.060Z,-4.46
2024-01-11T22:09:09.400Z,-4.44
2024-01-11T22:11:43.045Z,-4.44
2024-01-11T22:14:16.805Z,-4.46
2024-01-11T22:16:51.048Z,-4.45
2024-01-11T22:19:24.956Z,-4.43
2024-01-11T22:21:58.677Z,-4.42
2024-01-11T22:24:32.436Z,-4.41
2024-01-11T22:27:06.109Z,-4.42
2024-01-11T22:29:40.022Z,-4.41
2024-01-11T22:32:13.901Z,-4.42
2024-01-11T22:34:47.357Z,-4.43
2024-01-11T22:37:20.972Z,-4.42
2024-01-11T22:39:54.536Z,-4.39
2024-01-11T22:42:28.525Z,-4.39
2024-01-11T22:45:02.230Z,-4.37
2024-01-11T22:47:36.201Z,-4.37
2024-01-11T22:50:12.529Z,-4.36
2024-01-11T22:52:46.466Z,-4.35
2024-01-11T22:55:20.249Z,-4.34
2024-01-11T22:57:53.911Z,-4.31
2024-01-11T23:00:27.583Z,-4.31
2024-01-11T23:03:01.826Z,-4.30
2024-01-11T23:05:37.129Z,-4.29
2024-01-11T23:08:10.878Z,-4.29
2024-01-11T23:10:44.834Z,-4.28
2024-01-11T23:13:18.638Z,-4.25
2024-01-11T23:15:52.011Z,-4.24
2024-01-11T23:18:25.767Z,-4.26
2024-01-11T23:20:59.174Z,-4.23
2024-01-11T23:23:32.630Z,-4.22
2024-01-11T23:26:07.499Z,-4.21
2024-01-11T23:28:41.052Z,-4.23
2024-01-11T23:31:15.623Z,-4.22
2024-01-11T23:33:49.453Z,-4.24
2024-01-11T23:36:23.487Z,-4.21
2024-01-11T23:38:57.240Z,-4.19
2024-01-11T23:41:30.929Z,-4.18
2024-01-11T23:44:04.691Z,-4.18
2024-01-11T23:46:38.552Z,-4.16
2024-01-11T23:49:12.234Z,-4.15
2024-01-11T23:51:45.977Z,-4.14
2024-01-11T23:54:19.849Z,-4.14
2024-01-11T23:56:53.698Z,-4.13
2024-01-11T23:59:27.550Z,-4.13
